< < Back
Terminal Aerodrome Forecast


Current Version              Previous Versions:   1  2  3  4  5  6  7  8  9  

Terminal Aerodrome Forecast

032
FTUS44 KOHX 300500
TAFBNA
TAF
KBNA 300525Z 3006/3106 00000KT P6SM SKC
     FM301500 36006KT P6SM FEW060 SCT250=

Latest METAR

310
SAUS70 KWBC 310900 RRC
MTRBNA
METAR KBNA 310853Z 00000KT 10SM BKN250 17/15 A3009 RMK AO2 SLP184
T01720150 58001


USA.gov is the U.S. government's official web portal to all federal, state and local government web resources and services.